Stations météo

réclame
Mon MeteoGroup
Lons-Le-Saunier, France (7390): Température de l'air & dewpoint: 15.06.2019 01:00:00 - 21.06.2019 01:00:00 (CEST)Lons-Le-Saunier, France (7390): Vitesse du vent & gusts: 15.06.2019 01:00:00 - 21.06.2019 01:00:00 (CEST)Lons-Le-Saunier, France (7390): Direction du vent: 15.06.2019 01:00:00 - 21.06.2019 01:00:00 (CEST)Lons-Le-Saunier, France (7390): Quantités de précipitations: 15.06.2019 01:00:00 - 21.06.2019 01:00:00 (CEST)
Date & Time tt [°C] td [°C] ff [km/h] ff [knt] fx [km/h] fx [knt] dd rr [mm]
21.06.2019 01:00:00 - - - - - - - -
21.06.2019 00:00:00 17,6 13,5 9 5 26 14 NNE 0,0
20.06.2019 23:00:00 18,3 14,0 15 8 26 14 NNE 0,0
20.06.2019 22:00:00 18,7 14,6 11 6 22 12 NNE 0,0
20.06.2019 21:00:00 20,7 14,6 9 5 15 8 N 0,0
20.06.2019 20:00:00 21,9 13,5 8 4 18 10 W -
20.06.2019 19:00:00 22,7 13,7 11 6 18 10 W 0,0
20.06.2019 18:00:00 23,9 12,8 13 7 28 15 WNW 0,0
20.06.2019 17:00:00 23,9 15,1 11 6 26 14 W 0,0
20.06.2019 16:00:00 22,2 15,5 15 8 29 16 W 0,0
20.06.2019 15:00:00 23,4 16,9 13 7 22 12 W 0,0
20.06.2019 14:00:00 22,0 16,7 13 7 24 13 W -
20.06.2019 13:00:00 21,9 17,7 11 6 22 12 WSW 0,0
20.06.2019 12:00:00 21,2 16,4 8 4 18 10 W 0,0
20.06.2019 11:00:00 20,4 17,0 8 4 16 9 SW 0,0
20.06.2019 10:00:00 19,2 16,6 8 4 13 7 SSW 0,0
20.06.2019 09:00:00 17,7 16,7 5 3 11 6 S 0,0
20.06.2019 08:00:00 16,6 16,1 4 2 13 7 SE -
20.06.2019 07:00:00 16,5 15,4 8 4 11 6 S 0,2
20.06.2019 06:00:00 16,4 14,9 9 5 13 7 SE 0,0
20.06.2019 05:00:00 16,0 14,9 9 5 13 7 SE 0,0
20.06.2019 04:00:00 16,0 14,9 8 4 18 10 SE 0,0
20.06.2019 03:00:00 16,3 15,3 8 4 22 12 ESE 0,0
20.06.2019 02:00:00 16,1 15,3 9 5 18 10 ESE -
20.06.2019 01:00:00 16,6 14,6 9 5 35 19 S 7,0
20.06.2019 00:00:00 19,4 14,4 5 3 9 5 SSE 0,0
19.06.2019 23:00:00 20,2 13,9 5 3 11 6 SE 0,0
19.06.2019 22:00:00 19,6 14,2 9 5 13 7 SE 0,0
19.06.2019 21:00:00 21,9 14,3 9 5 16 9 WSW 0,0
19.06.2019 20:00:00 23,1 13,3 11 6 26 14 WSW -
19.06.2019 19:00:00 25,2 13,1 9 5 29 16 SSW 0,0
19.06.2019 18:00:00 27,5 13,4 13 7 34 18 SSW 0,0
19.06.2019 17:00:00 27,6 13,5 22 12 50 27 SW 0,0
19.06.2019 16:00:00 27,6 14,2 26 14 48 26 SW 0,0
19.06.2019 15:00:00 27,1 14,8 24 13 39 21 SW 0,0
19.06.2019 14:00:00 26,3 13,4 26 14 42 23 SW -
19.06.2019 13:00:00 25,6 14,4 22 12 34 18 SW 0,0
19.06.2019 12:00:00 23,8 13,6 13 7 22 12 SSW 0,0
19.06.2019 11:00:00 22,1 12,9 11 6 29 16 S 0,2
19.06.2019 10:00:00 22,5 10,9 16 9 37 20 S 0,0
19.06.2019 09:00:00 22,4 13,2 9 5 26 14 S 0,0
19.06.2019 08:00:00 20,2 10,9 15 8 26 14 S -
19.06.2019 07:00:00 17,4 10,5 13 7 22 12 S 0,0
19.06.2019 06:00:00 18,9 9,7 9 5 18 10 SSE 0,0
19.06.2019 05:00:00 20,6 8,6 4 2 9 5 SSE 0,0
19.06.2019 04:00:00 20,5 8,2 9 5 16 9 SSW 0,0
19.06.2019 03:00:00 21,4 8,0 9 5 41 22 S 0,0
19.06.2019 02:00:00 22,4 7,0 16 9 39 21 S -
19.06.2019 01:00:00 22,9 8,2 18 10 34 18 S 0,0
19.06.2019 00:00:00 23,0 10,4 16 9 29 16 SSE 0,0
18.06.2019 23:00:00 22,4 11,2 13 7 26 14 SE 0,0
18.06.2019 22:00:00 23,6 11,6 11 6 24 13 SSE 0,0
18.06.2019 21:00:00 24,8 11,7 11 6 22 12 S 0,0
18.06.2019 20:00:00 26,5 14,6 11 6 22 12 S -
18.06.2019 19:00:00 26,6 17,4 8 4 22 12 SW 0,0
18.06.2019 18:00:00 28,1 16,7 9 5 26 14 SSW 0,0
18.06.2019 17:00:00 27,1 16,4 18 10 29 16 SW 0,0
18.06.2019 16:00:00 27,2 14,6 18 10 31 17 SSW 0,0
18.06.2019 15:00:00 27,9 17,1 8 4 11 6 SW 0,0
18.06.2019 14:00:00 27,4 17,0 4 2 9 5 SSE -
18.06.2019 13:00:00 24,7 19,1 4 2 11 6 W 0,0
18.06.2019 12:00:00 24,6 17,6 5 3 13 7 W 0,0
18.06.2019 11:00:00 25,0 17,5 4 2 13 7 NW 0,0
18.06.2019 10:00:00 23,7 17,2 4 2 9 5 WSW 0,0
18.06.2019 09:00:00 21,5 16,2 4 2 9 5 SW 0,0
18.06.2019 08:00:00 20,4 16,4 8 4 13 7 S -
18.06.2019 07:00:00 18,1 15,5 9 5 15 8 SE 0,0
18.06.2019 06:00:00 16,1 14,8 11 6 15 8 SE 0,0
18.06.2019 05:00:00 17,0 15,0 8 4 13 7 SSE 0,0
18.06.2019 04:00:00 16,7 14,9 11 6 13 7 SE 0,0
18.06.2019 03:00:00 17,0 15,0 11 6 13 7 SE 0,0
18.06.2019 02:00:00 17,7 15,3 9 5 11 6 SE -
18.06.2019 01:00:00 18,4 15,5 8 4 11 6 SE 0,0
18.06.2019 00:00:00 19,1 16,0 8 4 11 6 SE 0,0
17.06.2019 23:00:00 20,7 16,3 8 4 9 5 SE 0,0
17.06.2019 22:00:00 22,3 15,9 5 3 11 6 N 0,0
17.06.2019 21:00:00 24,1 16,1 8 4 13 7 NW 0,0
17.06.2019 20:00:00 25,6 17,0 9 5 16 9 NW -
17.06.2019 19:00:00 26,8 17,8 5 3 15 8 NNW 0,0
17.06.2019 18:00:00 26,5 16,7 8 4 18 10 WNW 0,0
17.06.2019 17:00:00 26,7 16,9 5 3 16 9 NW 0,0
17.06.2019 16:00:00 25,6 15,6 9 5 18 10 SW 0,0
17.06.2019 15:00:00 25,7 16,3 4 2 16 9 E 0,0
17.06.2019 14:00:00 24,4 15,9 8 4 21 11 WSW -
17.06.2019 13:00:00 23,3 16,8 8 4 15 8 W 0,0
17.06.2019 12:00:00 22,4 15,7 5 3 18 10 W 0,0
17.06.2019 11:00:00 20,8 14,2 5 3 15 8 WNW 0,0
17.06.2019 10:00:00 19,7 14,7 4 2 9 5 NW 0,0
17.06.2019 09:00:00 17,6 13,7 5 3 9 5 NW 0,0
17.06.2019 08:00:00 17,8 12,7 4 2 9 5 E -
17.06.2019 07:00:00 14,4 12,1 8 4 11 6 ESE 0,0
17.06.2019 06:00:00 12,6 11,2 8 4 9 5 ESE 0,0
17.06.2019 05:00:00 13,1 11,2 8 4 13 7 ENE 0,0
17.06.2019 04:00:00 13,8 11,3 4 2 24 13 NNE 0,0
17.06.2019 03:00:00 15,1 11,9 16 9 26 14 NE 0,0
17.06.2019 02:00:00 14,5 11,5 13 7 29 16 NE -
17.06.2019 01:00:00 16,5 11,6 15 8 28 15 NE 0,0
17.06.2019 00:00:00 17,0 11,9 15 8 29 16 NE 0,0
16.06.2019 23:00:00 17,2 12,1 11 6 24 13 NNE 0,0
16.06.2019 22:00:00 18,6 11,9 15 8 24 13 N 0,0
16.06.2019 21:00:00 20,0 12,5 13 7 24 13 N 0,0
16.06.2019 20:00:00 21,5 12,9 13 7 35 19 N -
16.06.2019 19:00:00 22,2 12,7 18 10 31 17 N 0,0
16.06.2019 18:00:00 22,6 13,6 16 9 31 17 NNE 0,0
16.06.2019 17:00:00 22,8 13,8 13 7 28 15 N 0,0
16.06.2019 16:00:00 22,3 13,6 16 9 28 15 N 0,0
16.06.2019 15:00:00 22,1 14,0 15 8 24 13 N 0,0
16.06.2019 14:00:00 20,9 13,3 13 7 22 12 NNW -
16.06.2019 13:00:00 19,8 13,0 8 4 24 13 N 0,0
16.06.2019 12:00:00 19,0 13,4 13 7 22 12 N 0,0
16.06.2019 11:00:00 18,1 13,4 11 6 18 10 NW 0,0
16.06.2019 10:00:00 16,5 13,4 8 4 13 7 WNW 0,0
16.06.2019 09:00:00 16,9 13,8 2 1 8 4 N 0,0
16.06.2019 08:00:00 14,5 13,4 2 1 5 3 WNW -
16.06.2019 07:00:00 13,6 13,3 4 2 8 4 SE 0,2
16.06.2019 06:00:00 13,3 13,0 4 2 8 4 SE 0,0
16.06.2019 05:00:00 13,6 13,1 5 3 8 4 SSE 0,0
16.06.2019 04:00:00 13,8 13,5 4 2 8 4 S 0,0
16.06.2019 03:00:00 13,9 13,4 4 2 11 6 S 0,0
16.06.2019 02:00:00 13,7 13,4 5 3 11 6 S -
16.06.2019 01:00:00 13,4 13,1 4 2 9 5 SE 0,0
16.06.2019 00:00:00 13,5 13,0 8 4 11 6 SE 0,0
15.06.2019 23:00:00 14,1 13,6 5 3 15 8 SE 0,0
15.06.2019 22:00:00 14,8 14,2 8 4 11 6 S 0,0
15.06.2019 21:00:00 15,0 14,4 4 2 8 4 ESE 0,0
15.06.2019 20:00:00 15,3 13,7 4 2 13 7 WNW -
15.06.2019 19:00:00 16,4 15,8 5 3 15 8 NW 1,0
15.06.2019 18:00:00 16,5 15,5 11 6 22 12 SSW 0,6
15.06.2019 17:00:00 17,2 15,4 15 8 34 18 W 0,8
15.06.2019 16:00:00 19,0 13,8 16 9 29 16 WNW 0,0
15.06.2019 15:00:00 20,9 15,4 13 7 26 14 WNW 0,0
15.06.2019 14:00:00 19,4 14,4 13 7 22 12 NW -
15.06.2019 13:00:00 18,6 13,7 8 4 16 9 WNW 0,0
15.06.2019 12:00:00 17,5 13,6 9 5 18 10 NW 0,0
15.06.2019 11:00:00 17,7 14,4 11 6 18 10 WNW 0,0
15.06.2019 10:00:00 17,7 13,6 9 5 15 8 W 0,0
15.06.2019 09:00:00 16,9 15,4 4 2 8 4 SE 0,0
15.06.2019 08:00:00 15,5 14,9 4 2 8 4 ESE -
15.06.2019 07:00:00 14,3 14,1 4 2 11 6 SE 0,0
15.06.2019 06:00:00 13,9 13,9 8 4 13 7 ESE 0,0
15.06.2019 05:00:00 14,1 13,9 4 2 15 8 SSE 0,0
15.06.2019 04:00:00 14,8 13,7 9 5 24 13 S 0,0
15.06.2019 03:00:00 14,6 14,3 11 6 21 11 SE 2,0
15.06.2019 02:00:00 14,8 14,6 13 7 29 16 SSW -
15.06.2019 01:00:00 16,1 14,6 16 9 44 24 W 0,0

tt = Température de l'air
td = dewpoint
ff = Vitesse du vent
fx = gusts
dd = Direction du vent
rr = Quantités de précipitations

stations d'obs. à proximité